sensor_id;sensor_type;location;lat;lon;timestamp;P1;durP1;ratioP1;P2;durP2;ratioP2
69529;SDS011;56727;47.188;8.840;2023-09-08T00:02:24;10.50;;;5.40;;
69529;SDS011;56727;47.188;8.840;2023-09-08T00:04:51;9.40;;;5.50;;
69529;SDS011;56727;47.188;8.840;2023-09-08T00:07:19;9.20;;;5.30;;
69529;SDS011;56727;47.188;8.840;2023-09-08T00:09:45;9.70;;;5.30;;
69529;SDS011;56727;47.188;8.840;2023-09-08T00:12:12;7.30;;;4.50;;
69529;SDS011;56727;47.188;8.840;2023-09-08T00:14:39;7.90;;;5.20;;
69529;SDS011;56727;47.188;8.840;2023-09-08T00:17:05;7.80;;;5.10;;
69529;SDS011;56727;47.188;8.840;2023-09-08T00:19:32;8.60;;;5.30;;
69529;SDS011;56727;47.188;8.840;2023-09-08T00:21:59;8.90;;;5.00;;
69529;SDS011;56727;47.188;8.840;2023-09-08T00:24:26;9.90;;;5.00;;
69529;SDS011;56727;47.188;8.840;2023-09-08T00:26:53;8.50;;;5.00;;
69529;SDS011;56727;47.188;8.840;2023-09-08T00:29:19;9.80;;;5.50;;
69529;SDS011;56727;47.188;8.840;2023-09-08T00:31:46;8.50;;;5.50;;
69529;SDS011;56727;47.188;8.840;2023-09-08T00:34:12;12.60;;;5.50;;
69529;SDS011;56727;47.188;8.840;2023-09-08T00:36:39;8.30;;;5.60;;
69529;SDS011;56727;47.188;8.840;2023-09-08T00:39:05;11.30;;;6.00;;
69529;SDS011;56727;47.188;8.840;2023-09-08T00:41:32;9.70;;;5.70;;
69529;SDS011;56727;47.188;8.840;2023-09-08T00:43:59;8.30;;;5.80;;
69529;SDS011;56727;47.188;8.840;2023-09-08T00:46:26;9.00;;;5.50;;
69529;SDS011;56727;47.188;8.840;2023-09-08T00:48:54;9.30;;;5.90;;
69529;SDS011;56727;47.188;8.840;2023-09-08T00:51:21;9.90;;;5.50;;
69529;SDS011;56727;47.188;8.840;2023-09-08T00:53:49;10.50;;;5.80;;
69529;SDS011;56727;47.188;8.840;2023-09-08T00:56:16;9.80;;;5.60;;
69529;SDS011;56727;47.188;8.840;2023-09-08T00:58:43;11.50;;;6.20;;
69529;SDS011;56727;47.188;8.840;2023-09-08T01:01:09;10.30;;;6.20;;
69529;SDS011;56727;47.188;8.840;2023-09-08T01:03:36;10.30;;;6.30;;
69529;SDS011;56727;47.188;8.840;2023-09-08T01:06:03;9.80;;;5.90;;
69529;SDS011;56727;47.188;8.840;2023-09-08T01:08:30;8.60;;;5.30;;
69529;SDS011;56727;47.188;8.840;2023-09-08T01:10:57;9.20;;;5.60;;
69529;SDS011;56727;47.188;8.840;2023-09-08T01:13:24;9.40;;;5.70;;
69529;SDS011;56727;47.188;8.840;2023-09-08T01:15:50;10.50;;;5.90;;
69529;SDS011;56727;47.188;8.840;2023-09-08T01:18:17;11.10;;;6.10;;
69529;SDS011;56727;47.188;8.840;2023-09-08T01:21:39;9.10;;;6.00;;
69529;SDS011;56727;47.188;8.840;2023-09-08T01:27:47;8.70;;;5.40;;
69529;SDS011;56727;47.188;8.840;2023-09-08T01:30:17;9.10;;;5.70;;
69529;SDS011;56727;47.188;8.840;2023-09-08T01:32:45;8.10;;;5.00;;
69529;SDS011;56727;47.188;8.840;2023-09-08T01:35:12;9.50;;;5.20;;
69529;SDS011;56727;47.188;8.840;2023-09-08T01:37:41;8.60;;;4.80;;
69529;SDS011;56727;47.188;8.840;2023-09-08T01:40:09;10.60;;;4.90;;
69529;SDS011;56727;47.188;8.840;2023-09-08T01:42:40;10.00;;;5.20;;
69529;SDS011;56727;47.188;8.840;2023-09-08T01:45:07;9.70;;;6.00;;
69529;SDS011;56727;47.188;8.840;2023-09-08T01:47:34;10.80;;;6.00;;
69529;SDS011;56727;47.188;8.840;2023-09-08T01:50:01;9.40;;;5.90;;
69529;SDS011;56727;47.188;8.840;2023-09-08T01:52:28;10.20;;;5.90;;
69529;SDS011;56727;47.188;8.840;2023-09-08T01:54:55;8.10;;;5.20;;
69529;SDS011;56727;47.188;8.840;2023-09-08T01:57:21;9.50;;;5.10;;
69529;SDS011;56727;47.188;8.840;2023-09-08T01:59:48;10.20;;;5.40;;
69529;SDS011;56727;47.188;8.840;2023-09-08T02:02:14;10.50;;;5.80;;
69529;SDS011;56727;47.188;8.840;2023-09-08T02:04:41;9.50;;;5.40;;
69529;SDS011;56727;47.188;8.840;2023-09-08T02:07:07;9.80;;;5.80;;
69529;SDS011;56727;47.188;8.840;2023-09-08T02:09:35;9.70;;;5.70;;
69529;SDS011;56727;47.188;8.840;2023-09-08T02:12:03;10.10;;;5.80;;
69529;SDS011;56727;47.188;8.840;2023-09-08T02:14:30;9.90;;;6.10;;
69529;SDS011;56727;47.188;8.840;2023-09-08T02:16:57;9.40;;;6.00;;
69529;SDS011;56727;47.188;8.840;2023-09-08T02:19:23;11.00;;;5.90;;
69529;SDS011;56727;47.188;8.840;2023-09-08T02:21:50;10.00;;;6.30;;
69529;SDS011;56727;47.188;8.840;2023-09-08T02:24:16;9.00;;;6.00;;
69529;SDS011;56727;47.188;8.840;2023-09-08T02:26:43;9.60;;;6.30;;
69529;SDS011;56727;47.188;8.840;2023-09-08T02:29:09;9.30;;;6.50;;
69529;SDS011;56727;47.188;8.840;2023-09-08T02:31:36;12.00;;;6.40;;
69529;SDS011;56727;47.188;8.840;2023-09-08T02:34:03;10.50;;;5.50;;
69529;SDS011;56727;47.188;8.840;2023-09-08T02:36:30;9.50;;;5.70;;
69529;SDS011;56727;47.188;8.840;2023-09-08T02:38:57;10.90;;;5.90;;
69529;SDS011;56727;47.188;8.840;2023-09-08T02:41:24;9.30;;;5.10;;
69529;SDS011;56727;47.188;8.840;2023-09-08T02:43:50;7.80;;;5.00;;
69529;SDS011;56727;47.188;8.840;2023-09-08T02:46:17;10.00;;;5.80;;
69529;SDS011;56727;47.188;8.840;2023-09-08T02:48:43;8.50;;;5.40;;
69529;SDS011;56727;47.188;8.840;2023-09-08T02:51:10;10.60;;;5.90;;
69529;SDS011;56727;47.188;8.840;2023-09-08T02:53:38;10.90;;;6.00;;
69529;SDS011;56727;47.188;8.840;2023-09-08T02:56:04;9.10;;;5.50;;
69529;SDS011;56727;47.188;8.840;2023-09-08T02:58:32;11.90;;;6.20;;
69529;SDS011;56727;47.188;8.840;2023-09-08T03:01:15;10.60;;;6.20;;
69529;SDS011;56727;47.188;8.840;2023-09-08T03:03:46;10.00;;;5.90;;
69529;SDS011;56727;47.188;8.840;2023-09-08T03:06:14;11.00;;;5.90;;
69529;SDS011;56727;47.188;8.840;2023-09-08T03:08:44;9.20;;;5.70;;
69529;SDS011;56727;47.188;8.840;2023-09-08T03:11:10;9.30;;;5.90;;
69529;SDS011;56727;47.188;8.840;2023-09-08T03:13:37;10.30;;;6.40;;
69529;SDS011;56727;47.188;8.840;2023-09-08T03:16:08;9.40;;;5.90;;
69529;SDS011;56727;47.188;8.840;2023-09-08T03:18:36;9.20;;;5.20;;
69529;SDS011;56727;47.188;8.840;2023-09-08T03:21:03;8.70;;;5.20;;
69529;SDS011;56727;47.188;8.840;2023-09-08T03:23:39;9.30;;;5.60;;
69529;SDS011;56727;47.188;8.840;2023-09-08T03:26:08;10.20;;;5.80;;
69529;SDS011;56727;47.188;8.840;2023-09-08T03:28:37;9.50;;;5.60;;
69529;SDS011;56727;47.188;8.840;2023-09-08T03:31:05;12.20;;;6.40;;
69529;SDS011;56727;47.188;8.840;2023-09-08T03:33:32;9.70;;;6.40;;
69529;SDS011;56727;47.188;8.840;2023-09-08T03:35:59;11.00;;;6.20;;
69529;SDS011;56727;47.188;8.840;2023-09-08T03:38:26;9.30;;;6.10;;
69529;SDS011;56727;47.188;8.840;2023-09-08T03:40:52;9.30;;;6.30;;
69529;SDS011;56727;47.188;8.840;2023-09-08T03:43:19;10.40;;;6.50;;
69529;SDS011;56727;47.188;8.840;2023-09-08T03:45:46;10.00;;;6.00;;
69529;SDS011;56727;47.188;8.840;2023-09-08T03:48:13;10.80;;;6.50;;
69529;SDS011;56727;47.188;8.840;2023-09-08T03:50:40;12.30;;;6.80;;
69529;SDS011;56727;47.188;8.840;2023-09-08T03:53:07;12.40;;;6.90;;
69529;SDS011;56727;47.188;8.840;2023-09-08T03:55:34;9.80;;;6.20;;
69529;SDS011;56727;47.188;8.840;2023-09-08T03:58:00;9.90;;;5.90;;
69529;SDS011;56727;47.188;8.840;2023-09-08T04:00:26;9.90;;;6.40;;
69529;SDS011;56727;47.188;8.840;2023-09-08T04:02:53;11.10;;;6.20;;
69529;SDS011;56727;47.188;8.840;2023-09-08T04:05:20;10.60;;;6.40;;
69529;SDS011;56727;47.188;8.840;2023-09-08T04:07:46;11.30;;;6.80;;
69529;SDS011;56727;47.188;8.840;2023-09-08T04:10:13;10.40;;;6.20;;
69529;SDS011;56727;47.188;8.840;2023-09-08T04:12:40;9.90;;;6.50;;
69529;SDS011;56727;47.188;8.840;2023-09-08T04:15:08;11.20;;;6.80;;
69529;SDS011;56727;47.188;8.840;2023-09-08T04:17:36;9.00;;;6.50;;
69529;SDS011;56727;47.188;8.840;2023-09-08T04:20:04;12.10;;;6.90;;
69529;SDS011;56727;47.188;8.840;2023-09-08T04:22:32;12.70;;;7.40;;
69529;SDS011;56727;47.188;8.840;2023-09-08T04:25:00;11.20;;;7.30;;
69529;SDS011;56727;47.188;8.840;2023-09-08T04:27:27;12.80;;;7.60;;
69529;SDS011;56727;47.188;8.840;2023-09-08T04:29:54;11.10;;;6.50;;
69529;SDS011;56727;47.188;8.840;2023-09-08T04:32:20;11.70;;;6.80;;
69529;SDS011;56727;47.188;8.840;2023-09-08T04:34:47;10.80;;;6.10;;
69529;SDS011;56727;47.188;8.840;2023-09-08T04:37:15;10.10;;;6.20;;
69529;SDS011;56727;47.188;8.840;2023-09-08T04:39:42;12.10;;;6.40;;
69529;SDS011;56727;47.188;8.840;2023-09-08T04:42:08;11.90;;;6.80;;
69529;SDS011;56727;47.188;8.840;2023-09-08T04:44:35;12.50;;;8.20;;
69529;SDS011;56727;47.188;8.840;2023-09-08T04:47:02;12.30;;;7.40;;
69529;SDS011;56727;47.188;8.840;2023-09-08T04:49:28;13.10;;;8.20;;
69529;SDS011;56727;47.188;8.840;2023-09-08T04:51:56;17.40;;;8.40;;
69529;SDS011;56727;47.188;8.840;2023-09-08T04:54:23;12.80;;;8.00;;
69529;SDS011;56727;47.188;8.840;2023-09-08T04:56:53;13.70;;;7.80;;
69529;SDS011;56727;47.188;8.840;2023-09-08T04:59:21;14.30;;;7.80;;
69529;SDS011;56727;47.188;8.840;2023-09-08T05:01:50;12.40;;;8.30;;
69529;SDS011;56727;47.188;8.840;2023-09-08T05:04:17;10.50;;;7.10;;
69529;SDS011;56727;47.188;8.840;2023-09-08T05:06:44;9.30;;;6.00;;
69529;SDS011;56727;47.188;8.840;2023-09-08T05:09:11;11.50;;;6.60;;
69529;SDS011;56727;47.188;8.840;2023-09-08T05:11:38;11.00;;;6.30;;
69529;SDS011;56727;47.188;8.840;2023-09-08T05:14:05;9.90;;;6.40;;
69529;SDS011;56727;47.188;8.840;2023-09-08T05:16:32;11.30;;;7.50;;
69529;SDS011;56727;47.188;8.840;2023-09-08T05:19:16;12.40;;;6.70;;
69529;SDS011;56727;47.188;8.840;2023-09-08T05:21:42;12.10;;;6.90;;
69529;SDS011;56727;47.188;8.840;2023-09-08T05:24:09;10.90;;;6.80;;
69529;SDS011;56727;47.188;8.840;2023-09-08T05:26:37;12.50;;;7.30;;
69529;SDS011;56727;47.188;8.840;2023-09-08T05:29:05;15.00;;;7.70;;
69529;SDS011;56727;47.188;8.840;2023-09-08T05:31:31;13.10;;;7.50;;
69529;SDS011;56727;47.188;8.840;2023-09-08T05:33:58;13.50;;;7.50;;
69529;SDS011;56727;47.188;8.840;2023-09-08T05:36:24;13.20;;;7.10;;
69529;SDS011;56727;47.188;8.840;2023-09-08T05:38:51;15.10;;;6.60;;
69529;SDS011;56727;47.188;8.840;2023-09-08T05:41:17;13.00;;;6.60;;
69529;SDS011;56727;47.188;8.840;2023-09-08T05:43:44;11.90;;;6.40;;
69529;SDS011;56727;47.188;8.840;2023-09-08T05:46:10;13.30;;;7.20;;
69529;SDS011;56727;47.188;8.840;2023-09-08T05:48:37;18.60;;;7.30;;
69529;SDS011;56727;47.188;8.840;2023-09-08T05:51:04;15.50;;;7.90;;
69529;SDS011;56727;47.188;8.840;2023-09-08T05:53:33;18.40;;;7.90;;
69529;SDS011;56727;47.188;8.840;2023-09-08T05:56:01;15.00;;;7.20;;
69529;SDS011;56727;47.188;8.840;2023-09-08T05:58:28;11.90;;;7.30;;
69529;SDS011;56727;47.188;8.840;2023-09-08T06:00:54;16.90;;;7.40;;
69529;SDS011;56727;47.188;8.840;2023-09-08T06:03:21;14.60;;;7.70;;
69529;SDS011;56727;47.188;8.840;2023-09-08T06:05:47;14.00;;;7.70;;
69529;SDS011;56727;47.188;8.840;2023-09-08T06:08:14;11.60;;;7.60;;
69529;SDS011;56727;47.188;8.840;2023-09-08T06:10:40;12.30;;;7.70;;
69529;SDS011;56727;47.188;8.840;2023-09-08T06:13:07;10.90;;;6.50;;
69529;SDS011;56727;47.188;8.840;2023-09-08T06:15:34;11.20;;;7.40;;
69529;SDS011;56727;47.188;8.840;2023-09-08T06:18:00;9.90;;;6.50;;
69529;SDS011;56727;47.188;8.840;2023-09-08T06:20:26;12.10;;;7.30;;
69529;SDS011;56727;47.188;8.840;2023-09-08T06:22:53;13.60;;;7.80;;
69529;SDS011;56727;47.188;8.840;2023-09-08T06:25:20;15.30;;;7.70;;
69529;SDS011;56727;47.188;8.840;2023-09-08T06:27:46;13.70;;;7.80;;
69529;SDS011;56727;47.188;8.840;2023-09-08T06:30:13;12.50;;;7.60;;
69529;SDS011;56727;47.188;8.840;2023-09-08T06:32:42;10.20;;;7.30;;
69529;SDS011;56727;47.188;8.840;2023-09-08T06:35:09;12.20;;;7.90;;
69529;SDS011;56727;47.188;8.840;2023-09-08T06:37:37;14.20;;;7.40;;
69529;SDS011;56727;47.188;8.840;2023-09-08T06:40:05;11.60;;;8.20;;
69529;SDS011;56727;47.188;8.840;2023-09-08T06:42:32;12.90;;;7.80;;
69529;SDS011;56727;47.188;8.840;2023-09-08T06:44:59;12.30;;;8.30;;
69529;SDS011;56727;47.188;8.840;2023-09-08T06:47:26;11.30;;;8.30;;
69529;SDS011;56727;47.188;8.840;2023-09-08T06:49:52;14.90;;;8.40;;
69529;SDS011;56727;47.188;8.840;2023-09-08T06:52:19;12.10;;;8.20;;
69529;SDS011;56727;47.188;8.840;2023-09-08T06:54:45;11.00;;;8.20;;
69529;SDS011;56727;47.188;8.840;2023-09-08T06:57:13;12.90;;;8.80;;
69529;SDS011;56727;47.188;8.840;2023-09-08T06:59:40;13.60;;;8.90;;
69529;SDS011;56727;47.188;8.840;2023-09-08T07:02:07;14.50;;;8.80;;
69529;SDS011;56727;47.188;8.840;2023-09-08T07:04:34;12.30;;;8.70;;
69529;SDS011;56727;47.188;8.840;2023-09-08T07:07:00;11.60;;;7.90;;
69529;SDS011;56727;47.188;8.840;2023-09-08T07:09:36;13.80;;;8.90;;
69529;SDS011;56727;47.188;8.840;2023-09-08T07:12:04;11.40;;;7.60;;
69529;SDS011;56727;47.188;8.840;2023-09-08T07:14:31;11.50;;;9.10;;
69529;SDS011;56727;47.188;8.840;2023-09-08T07:16:58;14.60;;;8.60;;
69529;SDS011;56727;47.188;8.840;2023-09-08T07:19:26;10.60;;;8.90;;
69529;SDS011;56727;47.188;8.840;2023-09-08T07:21:53;12.80;;;10.20;;
69529;SDS011;56727;47.188;8.840;2023-09-08T07:24:20;10.50;;;8.10;;
69529;SDS011;56727;47.188;8.840;2023-09-08T07:26:47;11.00;;;9.20;;
69529;SDS011;56727;47.188;8.840;2023-09-08T07:29:13;12.60;;;9.70;;
69529;SDS011;56727;47.188;8.840;2023-09-08T07:31:40;12.20;;;9.30;;
69529;SDS011;56727;47.188;8.840;2023-09-08T07:34:07;11.50;;;9.60;;
69529;SDS011;56727;47.188;8.840;2023-09-08T07:36:35;13.00;;;9.30;;
69529;SDS011;56727;47.188;8.840;2023-09-08T07:39:03;11.50;;;10.00;;
69529;SDS011;56727;47.188;8.840;2023-09-08T07:41:30;11.50;;;9.60;;
69529;SDS011;56727;47.188;8.840;2023-09-08T07:43:56;12.40;;;9.80;;
69529;SDS011;56727;47.188;8.840;2023-09-08T07:46:23;11.80;;;10.60;;
69529;SDS011;56727;47.188;8.840;2023-09-08T07:48:49;11.20;;;10.00;;
69529;SDS011;56727;47.188;8.840;2023-09-08T07:51:16;11.30;;;10.10;;
69529;SDS011;56727;47.188;8.840;2023-09-08T07:53:43;13.50;;;10.60;;
69529;SDS011;56727;47.188;8.840;2023-09-08T07:56:10;11.90;;;10.20;;
69529;SDS011;56727;47.188;8.840;2023-09-08T07:58:37;11.30;;;10.20;;
69529;SDS011;56727;47.188;8.840;2023-09-08T08:01:05;12.80;;;11.60;;
69529;SDS011;56727;47.188;8.840;2023-09-08T08:03:31;13.90;;;12.00;;
69529;SDS011;56727;47.188;8.840;2023-09-08T08:05:58;14.60;;;11.70;;
69529;SDS011;56727;47.188;8.840;2023-09-08T08:08:25;13.00;;;11.70;;
69529;SDS011;56727;47.188;8.840;2023-09-08T08:10:51;13.90;;;12.60;;
69529;SDS011;56727;47.188;8.840;2023-09-08T08:13:18;12.90;;;11.70;;
69529;SDS011;56727;47.188;8.840;2023-09-08T08:15:45;13.40;;;12.00;;
69529;SDS011;56727;47.188;8.840;2023-09-08T08:18:14;14.20;;;12.70;;
69529;SDS011;56727;47.188;8.840;2023-09-08T08:20:41;13.20;;;12.00;;
69529;SDS011;56727;47.188;8.840;2023-09-08T08:23:07;14.40;;;13.00;;
69529;SDS011;56727;47.188;8.840;2023-09-08T08:25:34;14.70;;;13.30;;
69529;SDS011;56727;47.188;8.840;2023-09-08T08:28:01;15.50;;;14.10;;
69529;SDS011;56727;47.188;8.840;2023-09-08T08:30:29;13.60;;;12.30;;
69529;SDS011;56727;47.188;8.840;2023-09-08T08:32:56;13.70;;;12.50;;
69529;SDS011;56727;47.188;8.840;2023-09-08T08:35:22;14.60;;;13.20;;
69529;SDS011;56727;47.188;8.840;2023-09-08T08:37:49;13.60;;;12.30;;
69529;SDS011;56727;47.188;8.840;2023-09-08T08:40:16;13.70;;;12.30;;
69529;SDS011;56727;47.188;8.840;2023-09-08T08:42:43;14.40;;;13.00;;
69529;SDS011;56727;47.188;8.840;2023-09-08T08:45:10;15.20;;;13.80;;
69529;SDS011;56727;47.188;8.840;2023-09-08T08:47:39;15.50;;;14.20;;
69529;SDS011;56727;47.188;8.840;2023-09-08T08:50:08;16.60;;;15.20;;
69529;SDS011;56727;47.188;8.840;2023-09-08T08:52:37;15.30;;;13.90;;
69529;SDS011;56727;47.188;8.840;2023-09-08T08:55:05;14.10;;;12.70;;
69529;SDS011;56727;47.188;8.840;2023-09-08T08:57:33;14.90;;;13.40;;
69529;SDS011;56727;47.188;8.840;2023-09-08T09:00:00;17.60;;;14.80;;
69529;SDS011;56727;47.188;8.840;2023-09-08T09:02:28;15.10;;;13.60;;
69529;SDS011;56727;47.188;8.840;2023-09-08T09:04:55;16.30;;;13.70;;
69529;SDS011;56727;47.188;8.840;2023-09-08T09:07:23;15.90;;;14.40;;
69529;SDS011;56727;47.188;8.840;2023-09-08T09:09:51;15.30;;;13.90;;
69529;SDS011;56727;47.188;8.840;2023-09-08T09:12:18;14.80;;;13.30;;
69529;SDS011;56727;47.188;8.840;2023-09-08T09:14:46;15.30;;;13.90;;
69529;SDS011;56727;47.188;8.840;2023-09-08T09:17:15;13.00;;;11.50;;
69529;SDS011;56727;47.188;8.840;2023-09-08T09:19:43;15.10;;;11.80;;
69529;SDS011;56727;47.188;8.840;2023-09-08T09:22:09;13.10;;;11.80;;
69529;SDS011;56727;47.188;8.840;2023-09-08T09:24:40;11.10;;;9.90;;
69529;SDS011;56727;47.188;8.840;2023-09-08T09:27:11;11.20;;;9.70;;
69529;SDS011;56727;47.188;8.840;2023-09-08T09:29:49;13.70;;;10.10;;
69529;SDS011;56727;47.188;8.840;2023-09-08T09:32:23;11.90;;;9.80;;
69529;SDS011;56727;47.188;8.840;2023-09-08T09:34:53;11.60;;;9.80;;
69529;SDS011;56727;47.188;8.840;2023-09-08T09:37:21;11.10;;;10.00;;
69529;SDS011;56727;47.188;8.840;2023-09-08T09:39:51;11.80;;;9.50;;
69529;SDS011;56727;47.188;8.840;2023-09-08T09:42:20;11.00;;;8.80;;
69529;SDS011;56727;47.188;8.840;2023-09-08T09:44:48;10.90;;;9.60;;
69529;SDS011;56727;47.188;8.840;2023-09-08T09:47:15;11.30;;;8.70;;
69529;SDS011;56727;47.188;8.840;2023-09-08T09:49:43;13.50;;;8.00;;
69529;SDS011;56727;47.188;8.840;2023-09-08T09:52:21;10.70;;;8.80;;
69529;SDS011;56727;47.188;8.840;2023-09-08T09:54:49;10.40;;;8.00;;
69529;SDS011;56727;47.188;8.840;2023-09-08T09:57:21;9.60;;;8.20;;
69529;SDS011;56727;47.188;8.840;2023-09-08T09:59:49;10.20;;;7.90;;
69529;SDS011;56727;47.188;8.840;2023-09-08T10:02:19;11.10;;;8.30;;
69529;SDS011;56727;47.188;8.840;2023-09-08T10:04:48;11.90;;;8.10;;
69529;SDS011;56727;47.188;8.840;2023-09-08T10:07:18;10.90;;;8.30;;
69529;SDS011;56727;47.188;8.840;2023-09-08T10:09:45;9.10;;;6.70;;
69529;SDS011;56727;47.188;8.840;2023-09-08T10:12:13;10.40;;;6.90;;
69529;SDS011;56727;47.188;8.840;2023-09-08T10:14:43;10.20;;;7.40;;
69529;SDS011;56727;47.188;8.840;2023-09-08T10:17:15;8.90;;;6.70;;
69529;SDS011;56727;47.188;8.840;2023-09-08T10:19:48;9.50;;;6.30;;
69529;SDS011;56727;47.188;8.840;2023-09-08T10:22:20;9.70;;;7.30;;
69529;SDS011;56727;47.188;8.840;2023-09-08T10:24:50;8.50;;;6.70;;
69529;SDS011;56727;47.188;8.840;2023-09-08T10:27:20;10.60;;;6.60;;
69529;SDS011;56727;47.188;8.840;2023-09-08T10:29:48;10.40;;;6.60;;
69529;SDS011;56727;47.188;8.840;2023-09-08T10:32:16;9.50;;;7.10;;
69529;SDS011;56727;47.188;8.840;2023-09-08T10:34:45;9.80;;;6.60;;
69529;SDS011;56727;47.188;8.840;2023-09-08T10:37:25;9.20;;;6.50;;
69529;SDS011;56727;47.188;8.840;2023-09-08T10:39:56;8.90;;;7.20;;
69529;SDS011;56727;47.188;8.840;2023-09-08T10:43:05;11.10;;;6.90;;
69529;SDS011;56727;47.188;8.840;2023-09-08T10:45:34;9.70;;;6.80;;
69529;SDS011;56727;47.188;8.840;2023-09-08T10:48:01;10.40;;;6.80;;
69529;SDS011;56727;47.188;8.840;2023-09-08T10:50:33;9.40;;;6.40;;
69529;SDS011;56727;47.188;8.840;2023-09-08T10:53:14;10.10;;;6.70;;
69529;SDS011;56727;47.188;8.840;2023-09-08T10:55:49;9.00;;;6.10;;
69529;SDS011;56727;47.188;8.840;2023-09-08T10:58:33;10.90;;;6.80;;
69529;SDS011;56727;47.188;8.840;2023-09-08T11:01:15;8.40;;;5.80;;
69529;SDS011;56727;47.188;8.840;2023-09-08T11:03:47;7.50;;;5.80;;
69529;SDS011;56727;47.188;8.840;2023-09-08T11:06:16;10.70;;;6.00;;
69529;SDS011;56727;47.188;8.840;2023-09-08T11:08:45;8.60;;;6.10;;
69529;SDS011;56727;47.188;8.840;2023-09-08T11:11:13;8.80;;;6.20;;
69529;SDS011;56727;47.188;8.840;2023-09-08T11:13:41;8.30;;;5.80;;
69529;SDS011;56727;47.188;8.840;2023-09-08T11:16:13;9.00;;;5.30;;
69529;SDS011;56727;47.188;8.840;2023-09-08T11:18:41;8.50;;;5.90;;
69529;SDS011;56727;47.188;8.840;2023-09-08T11:21:09;9.00;;;6.60;;
69529;SDS011;56727;47.188;8.840;2023-09-08T11:23:37;8.90;;;5.90;;
69529;SDS011;56727;47.188;8.840;2023-09-08T11:26:06;9.30;;;6.00;;
69529;SDS011;56727;47.188;8.840;2023-09-08T11:28:33;10.00;;;5.90;;
69529;SDS011;56727;47.188;8.840;2023-09-08T11:30:59;9.80;;;6.10;;
69529;SDS011;56727;47.188;8.840;2023-09-08T11:33:26;8.80;;;6.60;;
69529;SDS011;56727;47.188;8.840;2023-09-08T11:35:53;10.10;;;6.20;;
69529;SDS011;56727;47.188;8.840;2023-09-08T11:38:28;10.80;;;6.20;;
69529;SDS011;56727;47.188;8.840;2023-09-08T11:40:57;8.90;;;5.70;;
69529;SDS011;56727;47.188;8.840;2023-09-08T11:43:27;8.90;;;6.70;;
69529;SDS011;56727;47.188;8.840;2023-09-08T11:45:55;9.60;;;6.20;;
69529;SDS011;56727;47.188;8.840;2023-09-08T11:48:24;9.90;;;7.00;;
69529;SDS011;56727;47.188;8.840;2023-09-08T11:50:53;8.50;;;5.80;;
69529;SDS011;56727;47.188;8.840;2023-09-08T11:53:23;9.20;;;5.90;;
69529;SDS011;56727;47.188;8.840;2023-09-08T11:55:50;8.40;;;5.90;;
69529;SDS011;56727;47.188;8.840;2023-09-08T11:58:18;8.20;;;5.80;;
69529;SDS011;56727;47.188;8.840;2023-09-08T12:00:46;11.20;;;5.40;;
69529;SDS011;56727;47.188;8.840;2023-09-08T12:03:16;8.60;;;6.00;;
69529;SDS011;56727;47.188;8.840;2023-09-08T12:05:44;7.80;;;5.70;;
69529;SDS011;56727;47.188;8.840;2023-09-08T12:08:17;8.00;;;5.40;;
69529;SDS011;56727;47.188;8.840;2023-09-08T12:10:44;10.00;;;6.10;;
69529;SDS011;56727;47.188;8.840;2023-09-08T12:13:11;9.10;;;6.00;;
69529;SDS011;56727;47.188;8.840;2023-09-08T12:15:41;11.80;;;6.00;;
69529;SDS011;56727;47.188;8.840;2023-09-08T12:18:12;8.70;;;5.40;;
69529;SDS011;56727;47.188;8.840;2023-09-08T12:20:41;8.60;;;6.00;;
69529;SDS011;56727;47.188;8.840;2023-09-08T12:23:21;9.50;;;5.90;;
69529;SDS011;56727;47.188;8.840;2023-09-08T12:25:50;7.10;;;3.80;;
69529;SDS011;56727;47.188;8.840;2023-09-08T12:28:19;7.40;;;4.40;;
69529;SDS011;56727;47.188;8.840;2023-09-08T12:30:47;6.50;;;4.00;;
69529;SDS011;56727;47.188;8.840;2023-09-08T12:33:16;8.00;;;4.30;;
69529;SDS011;56727;47.188;8.840;2023-09-08T12:35:46;6.20;;;4.00;;
69529;SDS011;56727;47.188;8.840;2023-09-08T12:38:19;7.20;;;4.40;;
69529;SDS011;56727;47.188;8.840;2023-09-08T12:40:45;6.90;;;4.00;;
69529;SDS011;56727;47.188;8.840;2023-09-08T12:43:12;8.10;;;4.50;;
69529;SDS011;56727;47.188;8.840;2023-09-08T12:45:38;8.90;;;4.60;;
69529;SDS011;56727;47.188;8.840;2023-09-08T12:48:06;9.20;;;5.10;;
69529;SDS011;56727;47.188;8.840;2023-09-08T12:50:33;7.10;;;4.20;;
69529;SDS011;56727;47.188;8.840;2023-09-08T12:53:00;6.40;;;4.20;;
69529;SDS011;56727;47.188;8.840;2023-09-08T12:55:26;7.90;;;4.60;;
69529;SDS011;56727;47.188;8.840;2023-09-08T12:57:53;7.30;;;4.30;;
69529;SDS011;56727;47.188;8.840;2023-09-08T13:00:23;7.60;;;4.20;;
69529;SDS011;56727;47.188;8.840;2023-09-08T13:02:51;6.80;;;3.70;;
69529;SDS011;56727;47.188;8.840;2023-09-08T13:05:17;6.00;;;3.90;;
69529;SDS011;56727;47.188;8.840;2023-09-08T13:07:44;7.80;;;4.40;;
69529;SDS011;56727;47.188;8.840;2023-09-08T13:10:10;7.10;;;4.20;;
69529;SDS011;56727;47.188;8.840;2023-09-08T13:12:37;7.40;;;4.40;;
69529;SDS011;56727;47.188;8.840;2023-09-08T13:15:04;7.40;;;4.60;;
69529;SDS011;56727;47.188;8.840;2023-09-08T13:17:32;7.20;;;4.90;;
69529;SDS011;56727;47.188;8.840;2023-09-08T13:19:58;8.20;;;4.90;;
69529;SDS011;56727;47.188;8.840;2023-09-08T13:22:25;9.10;;;5.90;;
69529;SDS011;56727;47.188;8.840;2023-09-08T13:24:51;7.40;;;5.40;;
69529;SDS011;56727;47.188;8.840;2023-09-08T13:27:18;9.20;;;5.80;;
69529;SDS011;56727;47.188;8.840;2023-09-08T13:29:45;7.60;;;5.90;;
69529;SDS011;56727;47.188;8.840;2023-09-08T13:32:11;10.80;;;6.10;;
69529;SDS011;56727;47.188;8.840;2023-09-08T13:34:38;7.30;;;5.50;;
69529;SDS011;56727;47.188;8.840;2023-09-08T13:37:04;9.70;;;5.70;;
69529;SDS011;56727;47.188;8.840;2023-09-08T13:39:32;11.10;;;6.00;;
69529;SDS011;56727;47.188;8.840;2023-09-08T13:41:59;9.20;;;5.40;;
69529;SDS011;56727;47.188;8.840;2023-09-08T13:44:28;10.30;;;6.20;;
69529;SDS011;56727;47.188;8.840;2023-09-08T13:46:55;7.60;;;5.10;;
69529;SDS011;56727;47.188;8.840;2023-09-08T13:49:22;8.00;;;5.50;;
69529;SDS011;56727;47.188;8.840;2023-09-08T13:51:49;8.80;;;5.20;;
69529;SDS011;56727;47.188;8.840;2023-09-08T13:54:18;10.30;;;5.90;;
69529;SDS011;56727;47.188;8.840;2023-09-08T13:56:44;8.30;;;5.50;;
69529;SDS011;56727;47.188;8.840;2023-09-08T13:59:11;10.80;;;5.60;;
69529;SDS011;56727;47.188;8.840;2023-09-08T14:01:39;8.40;;;5.40;;
69529;SDS011;56727;47.188;8.840;2023-09-08T14:04:05;9.00;;;6.30;;
69529;SDS011;56727;47.188;8.840;2023-09-08T14:06:35;10.90;;;6.70;;
69529;SDS011;56727;47.188;8.840;2023-09-08T14:09:02;8.00;;;6.00;;
69529;SDS011;56727;47.188;8.840;2023-09-08T14:11:28;11.10;;;7.00;;
69529;SDS011;56727;47.188;8.840;2023-09-08T14:13:55;9.30;;;6.20;;
69529;SDS011;56727;47.188;8.840;2023-09-08T14:16:21;8.20;;;6.00;;
69529;SDS011;56727;47.188;8.840;2023-09-08T14:18:48;9.50;;;6.30;;
69529;SDS011;56727;47.188;8.840;2023-09-08T14:21:15;9.70;;;6.10;;
69529;SDS011;56727;47.188;8.840;2023-09-08T14:23:41;8.40;;;5.90;;
69529;SDS011;56727;47.188;8.840;2023-09-08T14:26:08;10.80;;;5.70;;
69529;SDS011;56727;47.188;8.840;2023-09-08T14:28:34;10.40;;;6.10;;
69529;SDS011;56727;47.188;8.840;2023-09-08T14:31:01;12.20;;;6.50;;
69529;SDS011;56727;47.188;8.840;2023-09-08T14:33:28;13.10;;;6.10;;
69529;SDS011;56727;47.188;8.840;2023-09-08T14:35:55;9.40;;;5.80;;
69529;SDS011;56727;47.188;8.840;2023-09-08T14:38:23;8.30;;;5.40;;
69529;SDS011;56727;47.188;8.840;2023-09-08T14:41:01;9.60;;;6.10;;
69529;SDS011;56727;47.188;8.840;2023-09-08T14:43:29;11.50;;;6.40;;
69529;SDS011;56727;47.188;8.840;2023-09-08T14:45:56;10.60;;;6.40;;
69529;SDS011;56727;47.188;8.840;2023-09-08T14:48:27;9.20;;;5.60;;